createdAt,value
2018-08-25T00:02:13.254Z,8.75
2018-08-25T00:07:16.817Z,8.00
2018-08-25T00:12:20.771Z,8.50
2018-08-25T00:17:24.468Z,7.00
2018-08-25T00:22:28.161Z,7.00
2018-08-25T00:27:31.757Z,7.60
2018-08-25T00:32:35.361Z,8.25
2018-08-25T00:37:39.033Z,7.75
2018-08-25T00:42:42.666Z,8.60
2018-08-25T00:47:46.368Z,8.00
2018-08-25T00:52:50.118Z,6.40
2018-08-25T00:57:53.765Z,7.40
2018-08-25T01:02:57.386Z,7.50
2018-08-25T01:08:01.068Z,7.00
2018-08-25T01:13:04.776Z,7.80
2018-08-25T01:18:08.460Z,7.75
2018-08-25T01:23:12.067Z,8.60
2018-08-25T01:28:15.719Z,6.60
2018-08-25T01:33:19.335Z,7.00
2018-08-25T01:38:22.958Z,6.00
2018-08-25T01:43:26.595Z,7.00
2018-08-25T01:48:30.275Z,7.50
2018-08-25T01:53:33.868Z,6.20
2018-08-25T01:58:37.660Z,7.75
2018-08-25T02:03:41.284Z,7.25
2018-08-25T02:08:44.931Z,7.60
2018-08-25T02:13:48.663Z,7.00
2018-08-25T02:18:52.343Z,5.75
2018-08-25T02:23:56.206Z,6.60
2018-08-25T02:28:59.830Z,6.40
2018-08-25T02:34:03.431Z,7.75
2018-08-25T02:39:10.685Z,6.20
2018-08-25T02:44:14.368Z,7.50
2018-08-25T02:49:18.041Z,7.50
2018-08-25T02:54:21.694Z,7.40
2018-08-25T02:59:25.308Z,5.75
2018-08-25T03:04:28.949Z,6.80
2018-08-25T03:09:32.589Z,6.25
2018-08-25T03:14:36.231Z,5.75
2018-08-25T03:19:39.830Z,6.00
2018-08-25T03:24:43.474Z,6.25
2018-08-25T03:29:47.115Z,7.00
2018-08-25T03:34:50.750Z,6.00
2018-08-25T03:39:54.606Z,5.75
2018-08-25T03:44:58.263Z,6.00
2018-08-25T03:50:03.851Z,5.00
2018-08-25T03:55:08.232Z,5.20
2018-08-25T04:00:11.885Z,5.60
2018-08-25T04:05:15.562Z,5.40
2018-08-25T04:10:19.246Z,5.80
2018-08-25T04:15:22.905Z,6.00
2018-08-25T04:20:26.538Z,6.00
2018-08-25T04:25:30.164Z,7.60
2018-08-25T04:30:33.974Z,6.60
2018-08-25T04:35:37.784Z,6.00
2018-08-25T04:40:41.473Z,7.20
2018-08-25T04:45:45.234Z,5.50
2018-08-25T04:50:48.886Z,6.75
2018-08-25T04:55:52.510Z,6.00
2018-08-25T05:00:56.932Z,5.00
2018-08-25T05:06:00.580Z,5.75
2018-08-25T05:11:04.227Z,6.50
2018-08-25T05:16:07.850Z,5.50
2018-08-25T05:21:11.481Z,6.00
2018-08-25T05:26:15.306Z,6.00
2018-08-25T05:31:18.892Z,6.00
2018-08-25T05:36:22.594Z,5.25
2018-08-25T05:41:26.254Z,5.25
2018-08-25T05:46:29.901Z,4.25
2018-08-25T05:51:33.490Z,5.00
2018-08-25T05:56:37.096Z,5.75
2018-08-25T06:01:40.840Z,5.00
2018-08-25T06:06:44.550Z,5.00
2018-08-25T06:11:48.188Z,6.00
2018-08-25T06:16:51.839Z,5.00
2018-08-25T06:21:55.507Z,4.60
2018-08-25T06:26:59.184Z,4.25
2018-08-25T06:32:03.103Z,5.40
2018-08-25T06:37:07.080Z,4.40
2018-08-25T06:42:11.367Z,5.00
2018-08-25T06:47:15.183Z,5.40
2018-08-25T06:52:19.309Z,4.20
2018-08-25T06:57:22.946Z,5.75
2018-08-25T07:02:26.575Z,6.50
2018-08-25T07:07:30.212Z,6.25
2018-08-25T07:12:33.881Z,6.80
2018-08-25T07:17:37.543Z,8.00
2018-08-25T07:22:41.137Z,7.50
2018-08-25T07:27:44.760Z,7.20
2018-08-25T07:32:48.373Z,7.50
2018-08-25T07:37:51.977Z,7.80
2018-08-25T07:42:55.610Z,6.20
2018-08-25T07:47:59.283Z,7.00
2018-08-25T07:53:02.926Z,7.80
2018-08-25T07:58:06.727Z,6.50
2018-08-25T08:03:10.335Z,6.25
2018-08-25T08:08:13.990Z,5.60
2018-08-25T08:13:17.622Z,4.50
2018-08-25T08:18:21.302Z,4.50
2018-08-25T08:23:24.944Z,4.20
2018-08-25T08:28:28.739Z,3.25
2018-08-25T08:33:32.478Z,3.00
2018-08-25T08:38:37.654Z,3.25
2018-08-25T08:43:41.235Z,3.75
2018-08-25T08:48:44.849Z,3.50
2018-08-25T08:59:19.345Z,2.20
2018-08-25T09:04:22.929Z,2.00
2018-08-25T09:09:26.598Z,2.60
2018-08-25T09:14:30.276Z,3.60
2018-08-25T09:19:33.956Z,3.00
2018-08-25T09:24:37.718Z,2.20
2018-08-25T09:29:41.323Z,2.25
2018-08-25T09:34:44.927Z,2.00
2018-08-25T09:39:48.591Z,2.75
2018-08-25T09:44:52.255Z,3.00
2018-08-25T09:49:55.939Z,3.00
2018-08-25T09:54:59.597Z,2.25
2018-08-25T10:00:04.347Z,3.00
2018-08-25T10:05:08.646Z,3.00
2018-08-25T10:10:12.339Z,3.20
2018-08-25T10:15:16.011Z,2.00
2018-08-25T10:20:19.682Z,3.00
2018-08-25T10:25:23.379Z,2.80
2018-08-25T10:30:27.070Z,2.00
2018-08-25T10:35:30.695Z,2.20
2018-08-25T10:40:34.527Z,1.60
2018-08-25T10:45:38.159Z,2.00
2018-08-25T10:50:41.778Z,1.50
2018-08-25T10:55:45.362Z,1.25
2018-08-25T11:00:49.277Z,2.00
2018-08-25T11:05:52.750Z,2.00
2018-08-25T11:10:56.392Z,1.25
2018-08-25T11:16:00.086Z,1.50
2018-08-25T11:21:03.848Z,1.60
2018-08-25T11:26:07.572Z,1.00
2018-08-25T11:31:11.223Z,1.25
2018-08-25T11:36:14.946Z,1.50
2018-08-25T11:41:18.590Z,0.80
2018-08-25T11:46:22.252Z,1.00
2018-08-25T11:51:25.965Z,1.00
2018-08-25T11:56:29.618Z,1.00
2018-08-25T12:01:33.822Z,2.00
2018-08-25T12:06:37.555Z,1.00
2018-08-25T12:11:41.695Z,1.00
2018-08-25T12:16:45.340Z,1.00
2018-08-25T12:21:49.070Z,0.60
2018-08-25T12:26:54.591Z,1.00
2018-08-25T12:31:58.865Z,1.00
2018-08-25T12:37:02.472Z,1.00
2018-08-25T12:42:07.072Z,0.00
2018-08-25T12:47:10.951Z,1.00
2018-08-25T12:52:14.760Z,1.00
2018-08-25T12:57:19.076Z,0.40
2018-08-25T13:02:22.757Z,1.00
2018-08-25T13:07:26.449Z,1.00
2018-08-25T13:12:30.084Z,1.00
2018-08-25T13:17:34.029Z,0.80
2018-08-25T13:22:37.759Z,0.40
2018-08-25T13:27:41.463Z,0.00
2018-08-25T13:32:45.156Z,1.00
2018-08-25T13:37:48.806Z,0.00
2018-08-25T13:42:52.421Z,0.00
2018-08-25T13:47:56.085Z,0.00
2018-08-25T13:52:59.957Z,0.00
2018-08-25T13:58:03.580Z,0.00
2018-08-25T14:03:07.783Z,0.00
2018-08-25T14:08:11.571Z,0.25
2018-08-25T14:13:15.511Z,-0.25
2018-08-25T14:18:19.191Z,0.00
2018-08-25T14:23:22.802Z,0.00
2018-08-25T14:28:26.412Z,0.00
2018-08-25T14:33:30.151Z,0.00
2018-08-25T14:38:33.783Z,0.00
2018-08-25T14:43:37.408Z,0.00
2018-08-25T14:48:41.054Z,0.00
2018-08-25T14:53:44.683Z,0.00
2018-08-25T14:58:48.279Z,0.00
2018-08-25T15:03:51.879Z,0.00
2018-08-25T15:08:55.722Z,0.40
2018-08-25T15:13:59.308Z,0.00
2018-08-25T15:19:03.041Z,0.00
2018-08-25T15:24:06.754Z,0.00
2018-08-25T15:29:10.435Z,0.00
2018-08-25T15:34:14.097Z,0.00
2018-08-25T15:39:17.682Z,0.00
2018-08-25T15:44:21.473Z,0.00
2018-08-25T15:49:25.126Z,0.00
2018-08-25T15:54:29.399Z,0.00
2018-08-25T15:59:33.067Z,0.00
2018-08-25T16:04:37.036Z,0.00
2018-08-25T16:09:41.207Z,0.00
2018-08-25T16:14:44.821Z,0.00
2018-08-25T16:19:48.561Z,0.00
2018-08-25T16:24:52.147Z,0.00
2018-08-25T16:29:55.842Z,0.00
2018-08-25T16:34:59.524Z,1.00
2018-08-25T16:40:03.237Z,0.00
2018-08-25T16:45:07.922Z,0.50
2018-08-25T16:50:11.635Z,0.60
2018-08-25T16:55:15.631Z,1.00
2018-08-25T17:00:19.419Z,1.00
2018-08-25T17:05:23.214Z,1.40
2018-08-25T17:10:27.208Z,1.80
2018-08-25T17:15:30.882Z,3.00
2018-08-25T17:20:34.572Z,3.00
2018-08-25T17:25:38.178Z,2.75
2018-08-25T17:30:42.139Z,2.00
2018-08-25T17:35:46.151Z,1.80
2018-08-25T17:40:49.836Z,1.25
2018-08-25T17:45:53.610Z,1.40
2018-08-25T17:50:57.603Z,1.50
2018-08-25T17:56:01.333Z,1.00
2018-08-25T18:01:04.987Z,1.00
2018-08-25T18:06:08.619Z,1.00
2018-08-25T18:11:12.589Z,1.00
2018-08-25T18:16:16.558Z,1.50
2018-08-25T18:21:20.518Z,1.25
2018-08-25T18:26:24.454Z,1.50
2018-08-25T18:31:28.111Z,1.75
2018-08-25T18:36:31.739Z,2.00
2018-08-25T18:41:35.313Z,1.75
2018-08-25T18:46:38.885Z,1.50
2018-08-25T18:51:42.437Z,2.00
2018-08-25T18:56:46.012Z,2.00
2018-08-25T19:01:49.652Z,1.20
2018-08-25T19:06:53.349Z,2.00
2018-08-25T19:11:57.100Z,2.00
2018-08-25T19:17:01.048Z,2.00
2018-08-25T19:22:04.790Z,1.20
2018-08-25T19:27:08.507Z,1.40
2018-08-25T19:32:12.232Z,2.00
2018-08-25T19:37:15.893Z,1.25
2018-08-25T19:42:19.594Z,1.00
2018-08-25T19:47:23.430Z,2.00
2018-08-25T19:52:27.203Z,2.00
2018-08-25T19:57:30.875Z,2.00
2018-08-25T20:02:34.523Z,2.25
2018-08-25T20:07:38.164Z,1.80
2018-08-25T20:12:41.857Z,2.00
2018-08-25T20:17:45.548Z,1.00
2018-08-25T20:22:49.231Z,1.25
2018-08-25T20:27:53.051Z,1.00
2018-08-25T20:32:56.760Z,1.00
2018-08-25T20:38:00.635Z,1.25
2018-08-25T20:43:04.343Z,1.00
2018-08-25T20:48:07.677Z,1.00
2018-08-25T20:53:17.396Z,2.00
2018-08-25T20:58:21.103Z,2.25
2018-08-25T21:03:24.766Z,1.25
2018-08-25T21:08:28.462Z,1.75
2018-08-25T21:13:31.998Z,2.00
2018-08-25T21:18:35.634Z,2.00
2018-08-25T21:23:39.355Z,1.00
2018-08-25T21:28:44.171Z,1.50
2018-08-25T21:33:47.853Z,1.60
2018-08-25T21:38:51.531Z,1.50
2018-08-25T21:43:55.280Z,1.75
2018-08-25T21:48:58.879Z,2.00
2018-08-25T21:54:02.587Z,1.25
2018-08-25T21:59:06.139Z,2.00
2018-08-25T22:04:10.943Z,0.80
2018-08-25T22:09:14.533Z,2.00
2018-08-25T22:14:18.349Z,1.80
2018-08-25T22:19:21.974Z,1.00
2018-08-25T22:24:25.713Z,1.50
2018-08-25T22:29:29.356Z,1.25
2018-08-25T22:34:33.079Z,2.00
2018-08-25T22:39:36.685Z,1.80
2018-08-25T22:44:40.395Z,0.75
2018-08-25T22:49:44.229Z,1.60
2018-08-25T22:54:47.842Z,1.00
2018-08-25T22:59:51.470Z,1.00
2018-08-25T23:04:55.167Z,2.00
2018-08-25T23:09:59.082Z,1.00
2018-08-25T23:15:02.865Z,1.00
2018-08-25T23:20:06.811Z,2.00
2018-08-25T23:25:10.390Z,1.00
2018-08-25T23:30:14.056Z,1.25
2018-08-25T23:35:17.682Z,1.80
2018-08-25T23:40:21.366Z,1.20
2018-08-25T23:45:24.958Z,1.00
2018-08-25T23:50:28.756Z,1.00
2018-08-25T23:55:32.434Z,1.00
